Time;durP1;ratioP1;P1;durP2;ratioP2;P2;SDS_P1;SDS_P2;PMS_P1;PMS_P2;Temp;Humidity;BMP_temperature;BMP_pressure;BME280_temperature;BME280_humidity;BME280_pressure;Samples;Min_cycle;Max_cycle;Signal;HPM_P1;HPM_P2
2022/01/17 00:00:30;;;;;;;13.53;11.57;;;;;;;-0.18;100.00;98123.31;5018047;28;20259;-54
2022/01/17 00:02:59;;;;;;;15.50;11.67;;;;;;;-0.16;100.00;98113.63;5019051;28;20289;-55
2022/01/17 00:05:28;;;;;;;15.57;12.10;;;;;;;-0.16;100.00;98104.03;5015404;28;20249;-54
2022/01/17 00:07:56;;;;;;;14.17;12.63;;;;;;;-0.17;100.00;98093.72;5019069;28;21503;-56
2022/01/17 00:10:24;;;;;;;16.93;13.30;;;;;;;-0.13;100.00;98087.38;5018485;28;20265;-56
2022/01/17 00:12:55;;;;;;;16.63;13.03;;;;;;;-0.16;100.00;98080.56;5018296;28;20219;-58
2022/01/17 00:15:29;;;;;;;12.80;11.47;;;;;;;-0.09;100.00;98101.91;5017542;28;20208;-55
2022/01/17 00:18:22;;;;;;;16.13;12.40;;;;;;;-0.04;100.00;98114.63;5016874;28;20214;-55
2022/01/17 00:20:47;;;;;;;13.03;11.20;;;;;;;0.07;100.00;98129.59;5015778;28;20204;-55
2022/01/17 00:23:15;;;;;;;12.63;11.23;;;;;;;0.21;100.00;98136.56;5017656;28;20295;-58
2022/01/17 00:25:44;;;;;;;12.70;11.50;;;;;;;0.23;100.00;98137.31;5018769;28;20494;-57
2022/01/17 00:28:12;;;;;;;11.77;10.60;;;;;;;0.27;100.00;98139.66;5017032;28;20701;-57
2022/01/17 00:30:42;;;;;;;12.37;10.43;;;;;;;0.20;100.00;98143.56;5002637;28;20228;-56
2022/01/17 00:33:11;;;;;;;14.27;10.27;;;;;;;0.21;100.00;98145.25;5002362;28;20240;-56
2022/01/17 00:35:39;;;;;;;12.60;10.50;;;;;;;0.31;100.00;98145.50;5004170;28;20201;-56
2022/01/17 00:38:11;;;;;;;12.57;10.13;;;;;;;0.20;100.00;98143.56;5006304;28;20204;-54
2022/01/17 00:40:40;;;;;;;12.03;10.13;;;;;;;0.24;100.00;98159.84;5005889;28;20219;-57
2022/01/17 00:43:09;;;;;;;13.17;10.63;;;;;;;0.35;100.00;98162.59;5000635;28;20208;-58
2022/01/17 00:45:39;;;;;;;12.50;11.07;;;;;;;0.42;100.00;98163.06;5002815;28;20300;-58
2022/01/17 00:48:08;;;;;;;12.30;10.50;;;;;;;0.38;100.00;98159.00;5002814;28;20201;-56
2022/01/17 00:50:38;;;;;;;15.57;11.70;;;;;;;0.41;100.00;98167.47;4997167;28;20229;-49
2022/01/17 00:53:07;;;;;;;13.33;11.00;;;;;;;0.33;100.00;98176.69;5003627;28;20212;-56
2022/01/17 00:55:36;;;;;;;15.07;11.20;;;;;;;0.45;100.00;98162.88;5002099;28;20295;-57
2022/01/17 00:58:05;;;;;;;14.23;11.30;;;;;;;0.47;100.00;98171.44;5005062;28;20204;-55
2022/01/17 01:00:33;;;;;;;14.40;11.60;;;;;;;0.46;100.00;98163.72;5000254;28;20220;-55
2022/01/17 01:03:01;;;;;;;12.40;10.37;;;;;;;0.36;100.00;98161.69;5003444;28;20208;-53
2022/01/17 01:05:31;;;;;;;14.20;11.10;;;;;;;0.48;100.00;98161.88;5005219;28;20606;-53
2022/01/17 01:07:59;;;;;;;16.70;11.97;;;;;;;0.47;100.00;98161.00;5000526;28;20225;-52
2022/01/17 01:10:27;;;;;;;12.10;10.00;;;;;;;0.43;100.00;98156.94;5002573;28;20227;-52
2022/01/17 01:12:55;;;;;;;12.27;10.90;;;;;;;0.45;100.00;98152.44;5003187;28;20208;-53
2022/01/17 01:15:35;;;;;;;13.27;11.63;;;;;;;0.49;100.00;98147.91;4997015;28;20211;-55
2022/01/17 01:18:13;;;;;;;11.17;9.80;;;;;;;0.54;100.00;98156.25;4997225;28;20197;-58
2022/01/17 01:21:13;;;;;;;12.80;10.73;;;;;;;0.52;100.00;98147.69;4991866;28;20215;-55
2022/01/17 01:29:12;;;;;;;13.83;10.33;;;;;;;0.56;100.00;98138.75;5005944;28;20242;-54
2022/01/17 01:31:45;;;;;;;11.23;10.03;;;;;;;0.56;100.00;98142.16;5017004;28;20213;-58
2022/01/17 01:34:14;;;;;;;11.90;10.70;;;;;;;0.54;100.00;98141.44;4990132;28;20792;-52
2022/01/17 01:36:47;;;;;;;12.00;9.00;;;;;;;0.54;100.00;98138.00;5022550;28;20287;-59
2022/01/17 01:39:21;;;;;;;11.13;9.97;;;;;;;0.61;100.00;98143.69;5018256;28;20709;-60
2022/01/17 01:41:49;;;;;;;12.13;10.83;;;;;;;0.70;100.00;98143.09;5020855;28;20203;-56
2022/01/17 01:44:20;;;;;;;12.10;10.33;;;;;;;0.56;100.00;98157.81;5019794;28;20214;-54
2022/01/17 01:46:50;;;;;;;13.63;11.37;;;;;;;0.62;100.00;98147.97;5017353;28;20247;-52
2022/01/17 01:49:19;;;;;;;13.00;10.73;;;;;;;0.56;100.00;98151.78;5022665;28;20238;-59
2022/01/17 01:51:49;;;;;;;13.57;11.63;;;;;;;0.61;100.00;98141.88;5020405;28;20204;-58
2022/01/17 01:54:18;;;;;;;12.87;10.93;;;;;;;0.68;100.00;98143.16;5021088;28;20300;-55
2022/01/17 01:56:48;;;;;;;11.33;10.20;;;;;;;0.61;100.00;98146.28;5022072;28;20860;-56
2022/01/17 01:59:20;;;;;;;11.43;10.23;;;;;;;0.56;100.00;98138.75;5016316;28;20236;-51
2022/01/17 02:01:48;;;;;;;11.17;9.97;;;;;;;0.48;100.00;98138.41;5018338;28;20215;-55
2022/01/17 02:04:16;;;;;;;11.40;10.30;;;;;;;0.41;100.00;98120.53;5021252;28;20208;-55
2022/01/17 02:06:44;;;;;;;11.40;10.20;;;;;;;0.51;100.00;98112.94;5018545;28;20220;-54
2022/01/17 02:09:14;;;;;;;13.90;10.90;;;;;;;0.44;100.00;98098.63;5021355;28;20239;-57
2022/01/17 02:11:42;;;;;;;12.47;11.10;;;;;;;0.47;100.00;98100.22;5019877;28;20219;-58
2022/01/17 02:14:10;;;;;;;14.40;10.63;;;;;;;0.41;100.00;98107.50;5019947;28;20315;-57
2022/01/17 02:16:40;;;;;;;13.37;10.73;;;;;;;0.45;100.00;98096.88;5020495;28;20208;-56
2022/01/17 02:19:08;;;;;;;12.03;10.67;;;;;;;0.47;100.00;98108.84;5021931;28;20231;-51
2022/01/17 02:21:46;;;;;;;12.83;11.17;;;;;;;0.38;100.00;98109.44;5016185;28;20209;-52
2022/01/17 02:24:16;;;;;;;12.87;10.43;;;;;;;0.47;100.00;98114.06;5021861;28;20315;-55
2022/01/17 02:26:44;;;;;;;12.20;10.93;;;;;;;0.54;100.00;98111.94;5020392;28;20576;-55
2022/01/17 02:29:12;;;;;;;15.47;10.83;;;;;;;0.53;100.00;98120.69;5020960;28;20236;-55
2022/01/17 02:31:41;;;;;;;12.30;11.00;;;;;;;0.52;100.00;98119.84;5019788;28;20204;-53
2022/01/17 02:34:09;;;;;;;12.30;11.03;;;;;;;0.42;100.00;98122.22;5018063;28;20208;-59
2022/01/17 02:36:39;;;;;;;12.23;10.80;;;;;;;0.48;100.00;98125.34;5021451;28;20207;-52
2022/01/17 02:39:07;;;;;;;13.20;10.23;;;;;;;0.60;100.00;98126.34;5021309;28;20310;-56
2022/01/17 02:41:38;;;;;;;11.97;10.87;;;;;;;0.46;100.00;98122.84;5021466;28;20212;-57
2022/01/17 02:44:06;;;;;;;12.23;10.00;;;;;;;0.48;100.00;98126.19;5019596;28;20216;-54
2022/01/17 02:46:34;;;;;;;13.67;10.17;;;;;;;0.45;100.00;98123.78;5016619;28;20205;-59
2022/01/17 02:49:05;;;;;;;14.47;11.63;;;;;;;0.52;100.00;98113.78;5018980;28;20254;-55
2022/01/17 02:51:33;;;;;;;11.07;9.90;;;;;;;0.50;100.00;98098.22;5018562;28;20227;-56
2022/01/17 02:54:03;;;;;;;12.83;10.40;;;;;;;0.52;100.00;98103.38;5020415;28;20203;-53
2022/01/17 02:56:31;;;;;;;13.37;12.00;;;;;;;0.25;100.00;98101.56;5020092;28;20242;-52
2022/01/17 02:58:59;;;;;;;14.17;10.00;;;;;;;0.35;100.00;98092.22;5021719;28;20216;-52
2022/01/17 03:01:28;;;;;;;11.60;10.40;;;;;;;0.36;100.00;98074.81;5018613;28;20824;-52
2022/01/17 03:03:57;;;;;;;11.97;10.60;;;;;;;0.41;100.00;98067.53;5021707;28;20490;-53
2022/01/17 03:06:26;;;;;;;13.43;12.03;;;;;;;0.50;100.00;98072.16;5021874;28;20219;-50
2022/01/17 03:08:54;;;;;;;13.10;11.40;;;;;;;0.55;100.00;98075.28;5019942;28;20224;-58
2022/01/17 03:11:26;;;;;;;13.23;11.20;;;;;;;0.54;100.00;98060.59;5018666;28;20319;-60
2022/01/17 03:13:55;;;;;;;13.30;10.67;;;;;;;0.59;100.00;98070.72;5021630;28;20200;-52
2022/01/17 03:16:29;;;;;;;11.90;10.60;;;;;;;0.60;100.00;98088.06;5022057;28;20201;-52
2022/01/17 03:18:58;;;;;;;11.77;10.43;;;;;;;0.57;100.00;98075.22;5021417;28;20242;-56
2022/01/17 03:21:28;;;;;;;12.17;10.87;;;;;;;0.72;100.00;98086.44;5016625;28;20204;-51
2022/01/17 03:23:57;;;;;;;13.27;11.20;;;;;;;0.79;100.00;98081.66;5020452;28;20211;-54
2022/01/17 03:26:29;;;;;;;14.57;11.70;;;;;;;0.67;100.00;98084.09;5020573;28;20223;-54
2022/01/17 03:28:58;;;;;;;14.53;11.50;;;;;;;0.72;100.00;98079.44;5017815;28;20228;-53
2022/01/17 03:31:26;;;;;;;13.10;10.83;;;;;;;0.80;100.00;98081.53;5018811;28;20200;-54
2022/01/17 03:33:54;;;;;;;14.60;11.83;;;;;;;0.72;100.00;98089.03;5019726;28;20217;-52
2022/01/17 03:36:22;;;;;;;13.00;11.57;;;;;;;0.80;100.00;98089.38;5021446;28;20208;-51
2022/01/17 03:38:51;;;;;;;12.67;11.37;;;;;;;0.80;100.00;98089.38;5020142;28;20225;-59
2022/01/17 03:41:19;;;;;;;13.13;11.73;;;;;;;0.77;100.00;98079.13;5017823;28;20209;-54
2022/01/17 03:43:48;;;;;;;11.07;9.97;;;;;;;0.74;100.00;98079.34;5019218;28;20216;-56
2022/01/17 03:46:16;;;;;;;12.20;10.90;;;;;;;0.72;100.00;98060.34;5019564;28;20262;-55
2022/01/17 03:48:44;;;;;;;13.50;10.87;;;;;;;0.77;100.00;98065.28;5018479;28;20818;-58
2022/01/17 03:51:12;;;;;;;12.10;10.93;;;;;;;0.68;100.00;98053.66;5017565;28;20455;-56
2022/01/17 03:53:41;;;;;;;13.00;11.00;;;;;;;0.69;100.00;98050.13;5019655;28;20455;-56
2022/01/17 03:56:09;;;;;;;12.57;10.50;;;;;;;0.70;100.00;98059.59;5021557;28;20459;-55
2022/01/17 03:58:36;;;;;;;13.60;11.13;;;;;;;0.69;100.00;98063.16;5020326;28;20566;-50
2022/01/17 04:01:07;;;;;;;13.27;10.57;;;;;;;0.66;100.00;98071.19;5021354;28;20207;-50
2022/01/17 04:03:35;;;;;;;12.17;10.93;;;;;;;0.74;100.00;98084.56;5017385;28;20212;-53
2022/01/17 04:06:03;;;;;;;12.17;10.43;;;;;;;0.61;100.00;98074.06;5020408;28;20204;-53
2022/01/17 04:08:31;;;;;;;14.37;11.00;;;;;;;0.47;100.00;98072.34;5018997;28;20251;-55
2022/01/17 04:10:59;;;;;;;13.80;12.17;;;;;;;0.59;100.00;98075.13;5020957;28;20749;-55
2022/01/17 04:13:27;;;;;;;14.00;11.10;;;;;;;0.76;100.00;98081.84;5019033;28;20296;-54
2022/01/17 04:15:55;;;;;;;11.30;10.10;;;;;;;0.69;100.00;98091.84;5019344;28;20204;-59
2022/01/17 04:18:25;;;;;;;11.67;10.47;;;;;;;0.60;100.00;98084.63;5018721;28;20312;-59
2022/01/17 04:20:53;;;;;;;11.47;10.33;;;;;;;0.67;100.00;98083.28;5016495;28;20319;-55
2022/01/17 04:23:21;;;;;;;12.20;10.40;;;;;;;0.62;100.00;98078.34;5015967;28;20210;-53
2022/01/17 04:25:49;;;;;;;13.23;10.70;;;;;;;0.66;100.00;98077.22;5018957;28;20238;-58
2022/01/17 04:28:18;;;;;;;11.57;9.90;;;;;;;0.80;100.00;98072.91;5019968;28;20230;-56
2022/01/17 04:30:46;;;;;;;10.90;9.87;;;;;;;0.69;100.00;98050.13;5017662;28;20208;-56
2022/01/17 04:33:15;;;;;;;10.67;9.07;;;;;;;0.74;100.00;98042.81;5018340;28;20232;-58
2022/01/17 04:35:44;;;;;;;12.07;10.77;;;;;;;0.68;100.00;98051.88;5015825;28;20204;-59
2022/01/17 04:38:15;;;;;;;11.17;10.07;;;;;;;0.79;100.00;98045.97;5016027;28;20254;-56
2022/01/17 04:40:46;;;;;;;12.27;10.43;;;;;;;0.68;100.00;98048.44;5016574;28;20215;-54
2022/01/17 04:43:19;;;;;;;11.13;9.40;;;;;;;0.69;100.00;98052.72;5018226;28;21038;-58
2022/01/17 04:45:49;;;;;;;12.03;10.77;;;;;;;0.71;100.00;98066.50;5018113;28;20207;-57
2022/01/17 04:48:17;;;;;;;11.77;9.57;;;;;;;0.70;100.00;98070.88;5018927;28;20224;-55
2022/01/17 04:50:47;;;;;;;12.67;10.63;;;;;;;0.67;100.00;98059.81;5019787;28;20223;-56
2022/01/17 04:53:17;;;;;;;12.10;10.47;;;;;;;0.64;100.00;98066.06;5019746;28;20206;-54
2022/01/17 04:55:45;;;;;;;11.13;9.83;;;;;;;0.65;100.00;98085.16;5016315;28;20207;-56
2022/01/17 04:58:13;;;;;;;11.03;9.73;;;;;;;0.61;100.00;98094.13;5017758;28;20216;-54
2022/01/17 05:00:46;;;;;;;11.60;9.83;;;;;;;0.66;100.00;98099.88;5018685;28;20777;-55
2022/01/17 05:03:15;;;;;;;10.33;9.30;;;;;;;0.65;100.00;98088.59;5016465;28;20228;-53
2022/01/17 05:05:43;;;;;;;10.70;9.10;;;;;;;0.75;100.00;98080.16;5017563;28;20208;-56
2022/01/17 05:08:13;;;;;;;11.53;9.23;;;;;;;0.72;100.00;98071.59;5018549;28;20228;-59
2022/01/17 05:10:44;;;;;;;10.63;9.47;;;;;;;0.66;100.00;98069.41;5018758;28;20228;-56
2022/01/17 05:13:17;;;;;;;13.97;9.43;;;;;;;0.69;100.00;98081.41;5016663;28;20206;-56
2022/01/17 05:15:49;;;;;;;12.73;9.40;;;;;;;0.68;100.00;98061.47;5017723;28;20211;-56
2022/01/17 05:19:47;;;;;;;10.73;9.23;;;;;;;0.59;100.00;98080.34;5016979;28;20988;-54
2022/01/17 05:21:15;;;;;;;10.70;9.57;;;;;;;0.67;100.00;98089.31;5018980;28;20473;-56
2022/01/17 05:23:45;;;;;;;12.70;9.83;;;;;;;0.64;100.00;98084.31;5018815;28;20315;-57
2022/01/17 05:26:13;;;;;;;10.70;9.70;;;;;;;0.64;100.00;98093.91;5018531;28;20208;-56
2022/01/17 05:28:41;;;;;;;13.00;10.90;;;;;;;0.71;100.00;98082.16;5015395;28;20236;-57
2022/01/17 05:31:09;;;;;;;12.67;10.57;;;;;;;0.68;100.00;98069.31;5017500;28;20220;-56
2022/01/17 05:33:37;;;;;;;12.87;10.43;;;;;;;0.72;100.00;98073.38;5015064;28;20274;-59
2022/01/17 05:36:05;;;;;;;12.07;10.60;;;;;;;0.78;100.00;98070.38;5019712;28;20207;-56
2022/01/17 05:38:33;;;;;;;13.37;10.37;;;;;;;0.81;100.00;98061.53;5018561;28;20200;-56
2022/01/17 05:41:03;;;;;;;14.80;11.00;;;;;;;0.79;100.00;98066.00;5016078;28;20677;-55
2022/01/17 05:43:31;;;;;;;11.37;10.17;;;;;;;0.82;100.00;98074.44;5019087;28;20238;-59
2022/01/17 05:45:59;;;;;;;14.67;11.73;;;;;;;0.74;100.00;98074.13;5017700;28;20278;-57
2022/01/17 05:48:28;;;;;;;14.03;12.53;;;;;;;0.82;100.00;98082.28;5019579;28;20316;-55
2022/01/17 05:50:56;;;;;;;14.27;11.43;;;;;;;0.86;100.00;98078.53;5017239;28;20835;-55
2022/01/17 05:53:24;;;;;;;14.90;11.37;;;;;;;0.78;100.00;98066.94;5013955;28;20209;-56
2022/01/17 05:55:52;;;;;;;13.97;11.57;;;;;;;0.79;100.00;98063.41;5016172;28;20200;-55
2022/01/17 05:58:21;;;;;;;13.17;10.50;;;;;;;0.68;100.00;98062.31;5016235;28;20208;-55
2022/01/17 06:00:49;;;;;;;16.03;11.80;;;;;;;0.90;100.00;98065.28;5019042;28;20209;-60
2022/01/17 06:03:17;;;;;;;15.50;12.07;;;;;;;0.82;100.00;98057.97;5017203;28;20255;-55
2022/01/17 06:05:45;;;;;;;15.17;12.07;;;;;;;0.89;100.00;98059.25;5019757;28;20208;-57
2022/01/17 06:08:13;;;;;;;13.10;11.33;;;;;;;0.85;100.00;98057.78;5018801;28;20586;-56
2022/01/17 06:10:41;;;;;;;14.40;11.47;;;;;;;0.92;100.00;98076.44;5019172;28;20896;-53
2022/01/17 06:13:09;;;;;;;15.23;10.90;;;;;;;0.77;100.00;98093.97;5017571;28;20205;-54
2022/01/17 06:15:39;;;;;;;16.33;12.57;;;;;;;0.83;100.00;98086.56;5018694;28;20200;-50
2022/01/17 06:18:07;;;;;;;14.17;12.50;;;;;;;0.89;100.00;98084.47;5017538;28;20210;-54
2022/01/17 06:20:35;;;;;;;15.90;12.60;;;;;;;0.87;100.00;98084.59;5017760;28;20316;-59
2022/01/17 06:23:03;;;;;;;14.70;12.53;;;;;;;0.90;100.00;98078.31;5020757;28;20223;-57
2022/01/17 06:25:31;;;;;;;14.67;12.17;;;;;;;0.96;100.00;98088.38;5020963;28;20873;-53
2022/01/17 06:27:59;;;;;;;14.83;13.03;;;;;;;0.89;100.00;98080.13;5022934;28;21053;-56
2022/01/17 06:30:27;;;;;;;15.10;11.47;;;;;;;0.81;100.00;98085.00;5000904;28;20230;-56
2022/01/17 06:32:57;;;;;;;15.37;11.87;;;;;;;0.89;100.00;98087.94;5002671;28;20467;-54
2022/01/17 06:35:25;;;;;;;16.33;11.80;;;;;;;0.94;100.00;98085.88;5003136;28;20201;-60
2022/01/17 06:37:53;;;;;;;15.80;12.23;;;;;;;0.93;100.00;98088.56;5001734;28;20795;-58
2022/01/17 06:40:21;;;;;;;14.37;12.13;;;;;;;0.95;100.00;98099.75;5003250;28;20607;-52
2022/01/17 06:42:50;;;;;;;13.73;11.80;;;;;;;0.92;100.00;98107.75;5000261;28;20212;-54
2022/01/17 06:45:19;;;;;;;18.80;12.63;;;;;;;0.93;100.00;98122.47;5001137;28;20205;-57
2022/01/17 06:47:47;;;;;;;15.30;12.67;;;;;;;0.93;100.00;98120.72;5001575;28;20208;-58
2022/01/17 06:50:17;;;;;;;17.43;11.60;;;;;;;1.01;100.00;98125.44;5002574;28;20706;-54
2022/01/17 06:52:46;;;;;;;16.47;12.90;;;;;;;0.98;100.00;98125.66;5002379;28;20682;-55
2022/01/17 06:55:14;;;;;;;15.13;11.73;;;;;;;0.96;100.00;98127.53;5001257;28;20217;-55
2022/01/17 06:57:42;;;;;;;17.47;13.20;;;;;;;1.00;100.00;98124.59;4999855;28;20209;-57
2022/01/17 07:00:12;;;;;;;15.87;11.63;;;;;;;1.04;100.00;98120.03;5001197;28;20253;-55
2022/01/17 07:02:57;;;;;;;13.00;10.97;;;;;;;1.03;100.00;98097.47;5000817;28;21828;-58
2022/01/17 07:05:26;;;;;;;16.67;11.63;;;;;;;1.04;100.00;98104.38;4999508;28;20591;-55
2022/01/17 07:07:54;;;;;;;16.27;11.67;;;;;;;1.05;100.00;98129.53;5002274;28;20738;-53
2022/01/17 07:10:25;;;;;;;16.10;12.10;;;;;;;1.06;100.00;98123.38;5001914;28;20239;-57
2022/01/17 07:12:53;;;;;;;13.00;11.53;;;;;;;1.04;100.00;98130.47;5001114;28;20300;-57
2022/01/17 07:15:21;;;;;;;15.37;11.60;;;;;;;1.03;100.00;98138.38;5001214;28;20590;-54
2022/01/17 07:17:49;;;;;;;13.73;11.70;;;;;;;1.05;100.00;98139.97;5000458;28;20300;-57
2022/01/17 07:20:17;;;;;;;15.33;11.90;;;;;;;1.11;100.00;98152.63;5001847;28;20235;-55
2022/01/17 07:22:46;;;;;;;13.07;10.77;;;;;;;1.08;100.00;98165.88;5000781;28;20213;-53
2022/01/17 07:25:14;;;;;;;13.73;11.23;;;;;;;1.09;100.00;98185.81;4998448;28;20209;-56
2022/01/17 07:27:43;;;;;;;15.07;11.33;;;;;;;1.10;100.00;98187.50;5000059;28;20219;-54
2022/01/17 07:30:12;;;;;;;16.87;11.90;;;;;;;1.14;100.00;98201.19;5014471;28;21006;-54
2022/01/17 07:32:40;;;;;;;13.97;10.70;;;;;;;1.12;100.00;98197.81;5019937;28;20219;-56
2022/01/17 07:35:09;;;;;;;13.87;11.87;;;;;;;1.04;100.00;98185.28;5017743;28;20247;-57
2022/01/17 07:37:37;;;;;;;14.70;11.27;;;;;;;1.09;100.00;98156.25;5020660;28;20208;-57
2022/01/17 07:40:09;;;;;;;14.23;10.90;;;;;;;1.02;100.00;98145.41;5021950;28;20315;-57
2022/01/17 07:42:36;;;;;;;14.97;11.23;;;;;;;1.03;100.00;98149.69;5020780;28;20204;-57
2022/01/17 07:45:13;;;;;;;13.47;10.47;;;;;;;0.99;100.00;98163.88;5018730;28;20208;-54
2022/01/17 07:47:45;;;;;;;16.17;11.30;;;;;;;0.99;100.00;98153.44;5021336;28;20235;-55
2022/01/17 07:50:16;;;;;;;13.43;10.17;;;;;;;1.04;100.00;98147.88;5020655;28;20274;-58
2022/01/17 07:52:44;;;;;;;13.77;11.27;;;;;;;1.00;100.00;98140.25;5019011;28;20205;-55
2022/01/17 07:55:14;;;;;;;15.37;12.57;;;;;;;0.94;100.00;98129.38;5017736;28;20226;-54
2022/01/17 07:57:42;;;;;;;14.27;10.90;;;;;;;1.02;100.00;98121.91;5017005;28;20211;-56
2022/01/17 08:00:13;;;;;;;11.60;9.07;;;;;;;1.10;100.00;98122.22;5019442;28;20220;-54
2022/01/17 08:15:25;;;;;;;15.80;10.50;;;;;;;1.21;100.00;98152.88;5072010;27;21145;-59
2022/01/17 08:17:54;;;;;;;13.43;10.30;;;;;;;1.14;100.00;98149.81;5075503;28;20204;-60
2022/01/17 08:20:22;;;;;;;15.60;11.23;;;;;;;1.21;100.00;98154.63;5078099;28;20855;-63
2022/01/17 08:22:50;;;;;;;15.67;10.77;;;;;;;1.33;100.00;98158.19;5076779;28;20256;-62
2022/01/17 08:25:18;;;;;;;15.23;9.13;;;;;;;1.25;100.00;98140.44;5075873;28;20882;-62
2022/01/17 08:27:46;;;;;;;11.80;9.07;;;;;;;1.33;100.00;98129.47;5072563;28;20203;-62
2022/01/17 08:30:14;;;;;;;13.90;9.73;;;;;;;1.28;100.00;98135.84;5072782;28;20233;-63
2022/01/17 08:33:04;;;;;;;13.03;9.40;;;;;;;1.19;100.00;98133.00;5072580;28;20222;-61
2022/01/17 08:35:32;;;;;;;12.53;9.33;;;;;;;1.35;100.00;98110.16;5076579;28;20655;-58
2022/01/17 08:38:00;;;;;;;10.73;9.03;;;;;;;1.35;100.00;98104.94;5076540;28;20289;-60
2022/01/17 08:40:28;;;;;;;10.70;8.33;;;;;;;1.36;100.00;98088.34;5077769;28;20206;-58
2022/01/17 08:42:57;;;;;;;11.97;9.47;;;;;;;1.37;100.00;98087.41;5074430;28;20206;-59
2022/01/17 08:45:26;;;;;;;14.43;10.27;;;;;;;1.38;100.00;98075.16;5071429;28;20229;-60
2022/01/17 08:48:10;;;;;;;9.93;8.20;;;;;;;1.38;100.00;98090.84;5074089;28;20747;-62
2022/01/17 08:50:38;;;;;;;10.70;7.97;;;;;;;1.40;100.00;98096.78;5074623;28;20208;-62
2022/01/17 08:53:10;;;;;;;10.60;8.90;;;;;;;1.64;100.00;98109.13;5074599;28;20820;-62
2022/01/17 08:55:38;;;;;;;10.70;8.30;;;;;;;1.83;100.00;98135.66;5074046;28;20261;-63
2022/01/17 08:58:07;;;;;;;11.20;8.47;;;;;;;1.80;100.00;98156.78;5070126;28;20290;-63
2022/01/17 09:00:35;;;;;;;9.33;7.70;;;;;;;1.79;100.00;98164.75;5071473;28;20669;-62
2022/01/17 09:03:21;;;;;;;11.23;8.10;;;;;;;1.81;100.00;98163.69;5075255;28;20199;-63
2022/01/17 09:05:50;;;;;;;10.53;8.43;;;;;;;2.06;100.00;98153.31;5073228;28;20227;-60
2022/01/17 09:08:19;;;;;;;9.33;7.93;;;;;;;1.95;100.00;98151.47;5076005;28;20732;-62
2022/01/17 09:10:47;;;;;;;9.73;7.73;;;;;;;1.98;100.00;98143.41;5073658;28;20199;-63
2022/01/17 09:13:15;;;;;;;11.47;9.43;;;;;;;2.13;100.00;98162.44;5074383;28;20210;-62
2022/01/17 09:15:45;;;;;;;11.87;8.60;;;;;;;1.94;100.00;98173.31;5062455;28;20322;-63
2022/01/17 09:18:14;;;;;;;8.63;7.63;;;;;;;1.84;100.00;98160.84;5062795;28;20210;-63
2022/01/17 09:20:44;;;;;;;11.87;7.80;;;;;;;1.77;100.00;98183.13;5058937;28;20200;-62
2022/01/17 09:23:12;;;;;;;9.27;8.37;;;;;;;1.57;100.00;98195.75;5058830;28;20195;-62
2022/01/17 09:25:41;;;;;;;9.83;7.67;;;;;;;1.64;100.00;98203.19;5061832;28;20218;-62
2022/01/17 09:28:09;;;;;;;10.03;7.80;;;;;;;1.64;100.00;98203.19;5057895;28;20296;-63
2022/01/17 09:30:38;;;;;;;8.57;7.67;;;;;;;1.65;100.00;98194.41;5059512;28;20402;-63
2022/01/17 09:33:07;;;;;;;10.77;7.93;;;;;;;1.74;100.00;98196.41;5058846;28;20213;-61
2022/01/17 09:35:35;;;;;;;10.57;8.10;;;;;;;1.74;100.00;98212.06;5061713;28;20226;-62
2022/01/17 09:38:05;;;;;;;9.70;7.43;;;;;;;1.83;100.00;98194.94;5060450;28;20241;-61
2022/01/17 09:40:33;;;;;;;13.03;9.23;;;;;;;1.88;100.00;98205.94;5061509;28;20284;-62
2022/01/17 09:43:22;;;;;;;8.70;7.73;;;;;;;2.16;100.00;98210.09;5057964;28;20199;-63
2022/01/17 09:45:50;;;;;;;8.33;7.30;;;;;;;2.18;100.00;98196.94;5060756;28;20314;-61
2022/01/17 09:48:20;;;;;;;11.20;8.37;;;;;;;2.14;100.00;98216.41;5059377;28;20199;-62
2022/01/17 09:51:01;;;;;;;8.90;7.20;;;;;;;2.24;100.00;98214.81;5062468;28;20590;-61
2022/01/17 09:53:38;;;;;;;10.37;8.27;;;;;;;2.41;100.00;98184.03;5063278;28;20198;-60
2022/01/17 09:56:07;;;;;;;10.17;8.07;;;;;;;2.46;100.00;98195.84;5062028;28;20267;-62
2022/01/17 09:58:37;;;;;;;10.00;8.37;;;;;;;2.36;100.00;98220.97;5061305;28;20200;-61
2022/01/17 10:01:05;;;;;;;10.07;7.93;;;;;;;2.29;100.00;98220.56;5057095;28;20196;-62
2022/01/17 10:03:39;;;;;;;9.83;8.17;;;;;;;2.17;100.00;98234.47;5058969;28;20199;-61
2022/01/17 10:06:07;;;;;;;9.07;7.30;;;;;;;2.13;100.00;98223.38;5057386;28;20228;-62
2022/01/17 10:08:36;;;;;;;9.90;7.67;;;;;;;2.08;100.00;98212.41;5059438;28;20203;-61
2022/01/17 10:11:15;;;;;;;12.73;8.03;;;;;;;2.06;100.00;98213.44;5057890;28;20234;-62
2022/01/17 10:13:46;;;;;;;8.20;7.40;;;;;;;1.98;100.00;98212.19;5057770;28;20815;-61
2022/01/17 10:16:15;;;;;;;9.33;7.63;;;;;;;1.83;100.00;98229.75;5061259;28;20222;-62
2022/01/17 10:18:48;;;;;;;10.30;7.87;;;;;;;1.89;100.00;98225.91;5061295;28;20257;-62
2022/01/17 10:21:28;;;;;;;8.97;7.63;;;;;;;1.79;100.00;98217.00;5058504;28;20230;-63
2022/01/17 10:24:17;;;;;;;8.60;7.77;;;;;;;1.83;100.00;98231.53;5056624;28;20208;-63
2022/01/17 10:27:07;;;;;;;11.17;8.37;;;;;;;1.84;100.00;98214.91;5059407;28;20762;-62
2022/01/17 10:35:13;;;;;;;8.40;7.37;;;;;;;1.86;100.00;98213.03;5057325;28;20234;-55
2022/01/17 10:37:42;;;;;;;7.83;7.03;;;;;;;1.76;100.00;98209.38;5060827;28;20704;-62
2022/01/17 10:40:15;;;;;;;12.23;7.93;;;;;;;1.76;100.00;98215.41;5060477;28;20207;-60
2022/01/17 10:42:47;;;;;;;10.57;7.60;;;;;;;1.79;100.00;98215.22;5046761;28;20588;-63
2022/01/17 10:45:17;;;;;;;8.73;7.90;;;;;;;1.87;100.00;98212.91;5052002;28;20912;-60
2022/01/17 10:47:47;;;;;;;10.20;7.60;;;;;;;1.97;100.00;98213.13;5057072;28;20219;-63
2022/01/17 10:50:18;;;;;;;8.80;7.83;;;;;;;1.79;100.00;98214.38;5058626;28;20293;-63
2022/01/17 10:52:48;;;;;;;8.43;7.53;;;;;;;1.93;100.00;98203.00;5058604;28;20200;-62
2022/01/17 10:55:20;;;;;;;10.23;7.57;;;;;;;1.95;100.00;98199.34;5056287;28;20235;-62
2022/01/17 10:57:50;;;;;;;9.83;7.10;;;;;;;1.85;100.00;98198.28;5057965;28;20322;-67
2022/01/17 11:00:20;;;;;;;7.40;6.70;;;;;;;1.86;100.00;98192.13;5059589;28;20316;-63
2022/01/17 11:02:50;;;;;;;8.77;7.57;;;;;;;1.76;100.00;98184.06;5059793;28;20602;-63
2022/01/17 11:05:19;;;;;;;10.47;6.73;;;;;;;1.84;100.00;98194.00;5056248;28;20238;-63
2022/01/17 11:07:48;;;;;;;7.33;6.60;;;;;;;1.79;100.00;98212.59;5058377;28;20260;-65
2022/01/17 11:10:21;;;;;;;7.90;6.70;;;;;;;1.82;100.00;98207.16;5056708;28;20202;-63
2022/01/17 11:12:50;;;;;;;7.60;6.77;;;;;;;1.75;100.00;98197.25;5059232;28;20215;-64
2022/01/17 11:15:19;;;;;;;9.47;8.37;;;;;;;1.79;100.00;98191.69;5055389;28;20262;-63
2022/01/17 11:17:50;;;;;;;12.53;7.60;;;;;;;1.88;100.00;98200.69;5055594;28;20239;-64
2022/01/17 11:20:20;;;;;;;7.97;7.17;;;;;;;1.90;100.00;98193.59;5055762;28;20239;-64
2022/01/17 11:22:50;;;;;;;8.60;6.83;;;;;;;2.03;100.00;98191.78;5057594;28;21053;-62
2022/01/17 11:25:21;;;;;;;8.10;7.30;;;;;;;1.95;100.00;98201.13;5056250;28;20223;-63
2022/01/17 11:27:50;;;;;;;8.77;7.20;;;;;;;2.09;100.00;98198.41;5058196;28;20203;-64
2022/01/17 11:30:18;;;;;;;7.57;6.57;;;;;;;2.06;100.00;98203.84;5055495;28;20211;-62
2022/01/17 11:32:47;;;;;;;8.33;6.70;;;;;;;2.12;100.00;98181.69;5059932;28;20203;-65
2022/01/17 11:35:17;;;;;;;7.87;6.57;;;;;;;2.09;100.00;98153.13;5059927;28;20231;-62
2022/01/17 11:37:47;;;;;;;7.73;6.03;;;;;;;2.15;100.00;98155.31;5057928;28;20295;-64
2022/01/17 11:40:16;;;;;;;8.87;6.43;;;;;;;2.23;100.00;98144.28;5057834;28;20213;-62
2022/01/17 11:42:46;;;;;;;7.73;6.40;;;;;;;2.36;100.00;98144.28;5059671;28;20211;-64
2022/01/17 11:45:34;;;;;;;8.30;6.53;;;;;;;2.46;100.00;98137.44;5057516;28;20310;-64
2022/01/17 11:48:19;;;;;;;8.00;6.80;;;;;;;2.42;100.00;98156.91;5057900;28;20195;-63
2022/01/17 11:50:49;;;;;;;6.90;6.30;;;;;;;2.37;100.00;98138.94;5055787;28;20202;-60
2022/01/17 11:53:42;;;;;;;7.73;6.57;;;;;;;2.38;100.00;98124.94;5061325;28;20198;-64
2022/01/17 11:56:11;;;;;;;6.37;5.77;;;;;;;2.24;100.00;98122.44;5055042;28;20354;-64
2022/01/17 11:58:43;;;;;;;6.90;6.30;;;;;;;2.12;100.00;98135.44;5056354;28;20217;-64